sensor_id;sensor_type;location;lat;lon;timestamp;P1;durP1;ratioP1;P2;durP2;ratioP2
7324;SDS011;3703;48.016;7.802;2023-08-06T00:01:21;3.07;;;2.07;;
7324;SDS011;3703;48.016;7.802;2023-08-06T00:03:50;3.30;;;2.40;;
7324;SDS011;3703;48.016;7.802;2023-08-06T00:06:19;2.70;;;2.30;;
7324;SDS011;3703;48.016;7.802;2023-08-06T00:08:46;3.83;;;2.30;;
7324;SDS011;3703;48.016;7.802;2023-08-06T00:11:13;2.40;;;2.00;;
7324;SDS011;3703;48.016;7.802;2023-08-06T00:13:41;5.20;;;2.33;;
7324;SDS011;3703;48.016;7.802;2023-08-06T00:16:09;3.50;;;2.33;;
7324;SDS011;3703;48.016;7.802;2023-08-06T00:18:37;4.97;;;2.47;;
7324;SDS011;3703;48.016;7.802;2023-08-06T00:21:04;3.57;;;2.27;;
7324;SDS011;3703;48.016;7.802;2023-08-06T00:23:33;2.60;;;2.20;;
7324;SDS011;3703;48.016;7.802;2023-08-06T00:26:01;2.90;;;2.00;;
7324;SDS011;3703;48.016;7.802;2023-08-06T00:28:28;2.97;;;2.17;;
7324;SDS011;3703;48.016;7.802;2023-08-06T00:30:55;3.50;;;2.40;;
7324;SDS011;3703;48.016;7.802;2023-08-06T00:33:23;4.13;;;2.70;;
7324;SDS011;3703;48.016;7.802;2023-08-06T00:35:51;4.47;;;2.27;;
7324;SDS011;3703;48.016;7.802;2023-08-06T00:38:18;2.90;;;1.90;;
7324;SDS011;3703;48.016;7.802;2023-08-06T00:40:47;5.20;;;2.27;;
7324;SDS011;3703;48.016;7.802;2023-08-06T00:43:14;3.33;;;1.67;;
7324;SDS011;3703;48.016;7.802;2023-08-06T00:45:41;5.07;;;2.17;;
7324;SDS011;3703;48.016;7.802;2023-08-06T00:48:09;4.77;;;2.63;;
7324;SDS011;3703;48.016;7.802;2023-08-06T00:50:36;3.23;;;1.97;;
7324;SDS011;3703;48.016;7.802;2023-08-06T00:53:04;3.47;;;1.93;;
7324;SDS011;3703;48.016;7.802;2023-08-06T00:55:32;4.07;;;2.20;;
7324;SDS011;3703;48.016;7.802;2023-08-06T00:58:01;2.43;;;2.07;;
7324;SDS011;3703;48.016;7.802;2023-08-06T01:00:29;3.07;;;2.07;;
7324;SDS011;3703;48.016;7.802;2023-08-06T01:02:56;2.40;;;1.83;;
7324;SDS011;3703;48.016;7.802;2023-08-06T01:05:24;4.07;;;2.30;;
7324;SDS011;3703;48.016;7.802;2023-08-06T01:07:55;5.30;;;1.93;;
7324;SDS011;3703;48.016;7.802;2023-08-06T01:10:40;3.53;;;1.90;;
7324;SDS011;3703;48.016;7.802;2023-08-06T01:13:26;4.60;;;1.90;;
7324;SDS011;3703;48.016;7.802;2023-08-06T01:15:59;3.07;;;1.70;;
7324;SDS011;3703;48.016;7.802;2023-08-06T01:18:28;2.47;;;1.93;;
7324;SDS011;3703;48.016;7.802;2023-08-06T01:20:58;2.27;;;1.90;;
7324;SDS011;3703;48.016;7.802;2023-08-06T01:23:25;2.30;;;1.80;;
7324;SDS011;3703;48.016;7.802;2023-08-06T01:25:55;3.97;;;1.80;;
7324;SDS011;3703;48.016;7.802;2023-08-06T01:28:32;2.63;;;1.70;;
7324;SDS011;3703;48.016;7.802;2023-08-06T01:31:07;3.40;;;2.00;;
7324;SDS011;3703;48.016;7.802;2023-08-06T01:33:42;2.77;;;1.87;;
7324;SDS011;3703;48.016;7.802;2023-08-06T01:36:14;2.00;;;1.80;;
7324;SDS011;3703;48.016;7.802;2023-08-06T01:38:43;2.70;;;1.60;;
7324;SDS011;3703;48.016;7.802;2023-08-06T01:41:10;2.50;;;1.77;;
7324;SDS011;3703;48.016;7.802;2023-08-06T01:43:38;2.27;;;1.87;;
7324;SDS011;3703;48.016;7.802;2023-08-06T01:46:05;2.67;;;1.67;;
7324;SDS011;3703;48.016;7.802;2023-08-06T01:48:33;4.40;;;2.10;;
7324;SDS011;3703;48.016;7.802;2023-08-06T01:51:00;3.60;;;1.80;;
7324;SDS011;3703;48.016;7.802;2023-08-06T01:53:31;4.33;;;1.60;;
7324;SDS011;3703;48.016;7.802;2023-08-06T01:55:58;1.80;;;1.57;;
7324;SDS011;3703;48.016;7.802;2023-08-06T01:58:25;3.60;;;1.40;;
7324;SDS011;3703;48.016;7.802;2023-08-06T02:00:53;2.00;;;1.60;;
7324;SDS011;3703;48.016;7.802;2023-08-06T02:03:20;2.80;;;1.67;;
7324;SDS011;3703;48.016;7.802;2023-08-06T02:05:48;2.80;;;1.70;;
7324;SDS011;3703;48.016;7.802;2023-08-06T02:08:15;1.67;;;1.57;;
7324;SDS011;3703;48.016;7.802;2023-08-06T02:10:44;4.63;;;1.80;;
7324;SDS011;3703;48.016;7.802;2023-08-06T02:13:11;2.43;;;1.67;;
7324;SDS011;3703;48.016;7.802;2023-08-06T02:15:41;3.80;;;1.70;;
7324;SDS011;3703;48.016;7.802;2023-08-06T02:18:09;3.10;;;1.70;;
7324;SDS011;3703;48.016;7.802;2023-08-06T02:20:37;4.20;;;1.50;;
7324;SDS011;3703;48.016;7.802;2023-08-06T02:23:04;2.83;;;1.80;;
7324;SDS011;3703;48.016;7.802;2023-08-06T02:25:31;3.33;;;2.10;;
7324;SDS011;3703;48.016;7.802;2023-08-06T02:28:00;4.13;;;1.80;;
7324;SDS011;3703;48.016;7.802;2023-08-06T02:30:27;3.37;;;1.80;;
7324;SDS011;3703;48.016;7.802;2023-08-06T02:32:55;3.13;;;1.87;;
7324;SDS011;3703;48.016;7.802;2023-08-06T02:35:23;3.97;;;2.17;;
7324;SDS011;3703;48.016;7.802;2023-08-06T02:37:50;2.27;;;1.90;;
7324;SDS011;3703;48.016;7.802;2023-08-06T02:40:17;3.87;;;2.03;;
7324;SDS011;3703;48.016;7.802;2023-08-06T02:42:45;3.57;;;1.67;;
7324;SDS011;3703;48.016;7.802;2023-08-06T02:45:13;3.17;;;2.03;;
7324;SDS011;3703;48.016;7.802;2023-08-06T02:47:41;7.17;;;1.73;;
7324;SDS011;3703;48.016;7.802;2023-08-06T02:50:08;2.23;;;1.70;;
7324;SDS011;3703;48.016;7.802;2023-08-06T02:52:35;2.60;;;1.73;;
7324;SDS011;3703;48.016;7.802;2023-08-06T02:55:04;3.60;;;1.30;;
7324;SDS011;3703;48.016;7.802;2023-08-06T02:57:32;3.00;;;1.30;;
7324;SDS011;3703;48.016;7.802;2023-08-06T02:59:59;2.10;;;1.50;;
7324;SDS011;3703;48.016;7.802;2023-08-06T03:02:29;1.20;;;1.10;;
7324;SDS011;3703;48.016;7.802;2023-08-06T03:04:56;1.60;;;1.30;;
7324;SDS011;3703;48.016;7.802;2023-08-06T03:07:24;1.33;;;1.07;;
7324;SDS011;3703;48.016;7.802;2023-08-06T03:09:51;1.93;;;1.30;;
7324;SDS011;3703;48.016;7.802;2023-08-06T03:12:20;1.03;;;1.03;;
7324;SDS011;3703;48.016;7.802;2023-08-06T03:14:48;1.47;;;1.20;;
7324;SDS011;3703;48.016;7.802;2023-08-06T03:17:15;1.50;;;1.00;;
7324;SDS011;3703;48.016;7.802;2023-08-06T03:19:44;2.33;;;0.90;;
7324;SDS011;3703;48.016;7.802;2023-08-06T03:22:11;1.17;;;1.00;;
7324;SDS011;3703;48.016;7.802;2023-08-06T03:24:38;0.80;;;0.80;;
7324;SDS011;3703;48.016;7.802;2023-08-06T03:27:06;1.03;;;0.80;;
7324;SDS011;3703;48.016;7.802;2023-08-06T03:29:34;2.83;;;1.20;;
7324;SDS011;3703;48.016;7.802;2023-08-06T03:32:03;1.77;;;1.00;;
7324;SDS011;3703;48.016;7.802;2023-08-06T03:34:31;0.73;;;0.70;;
7324;SDS011;3703;48.016;7.802;2023-08-06T03:37:00;0.80;;;0.80;;
7324;SDS011;3703;48.016;7.802;2023-08-06T03:39:27;0.87;;;0.83;;
7324;SDS011;3703;48.016;7.802;2023-08-06T03:41:54;0.63;;;0.63;;
7324;SDS011;3703;48.016;7.802;2023-08-06T03:44:21;0.70;;;0.70;;
7324;SDS011;3703;48.016;7.802;2023-08-06T03:46:49;1.90;;;0.60;;
7324;SDS011;3703;48.016;7.802;2023-08-06T03:49:17;2.30;;;0.80;;
7324;SDS011;3703;48.016;7.802;2023-08-06T03:51:45;1.10;;;0.73;;
7324;SDS011;3703;48.016;7.802;2023-08-06T03:54:14;1.13;;;0.80;;
7324;SDS011;3703;48.016;7.802;2023-08-06T03:56:41;2.00;;;0.70;;
7324;SDS011;3703;48.016;7.802;2023-08-06T03:59:10;0.63;;;0.57;;
7324;SDS011;3703;48.016;7.802;2023-08-06T04:01:37;1.90;;;0.70;;
7324;SDS011;3703;48.016;7.802;2023-08-06T04:04:04;0.90;;;0.60;;
7324;SDS011;3703;48.016;7.802;2023-08-06T04:06:33;1.87;;;1.00;;
7324;SDS011;3703;48.016;7.802;2023-08-06T04:09:01;1.23;;;1.10;;
7324;SDS011;3703;48.016;7.802;2023-08-06T04:11:30;1.30;;;1.00;;
7324;SDS011;3703;48.016;7.802;2023-08-06T04:13:57;1.67;;;0.93;;
7324;SDS011;3703;48.016;7.802;2023-08-06T04:16:24;2.83;;;1.27;;
7324;SDS011;3703;48.016;7.802;2023-08-06T04:18:52;1.83;;;0.93;;
7324;SDS011;3703;48.016;7.802;2023-08-06T04:21:20;2.10;;;1.10;;
7324;SDS011;3703;48.016;7.802;2023-08-06T04:23:48;2.17;;;1.20;;
7324;SDS011;3703;48.016;7.802;2023-08-06T04:26:15;1.83;;;1.00;;
7324;SDS011;3703;48.016;7.802;2023-08-06T04:28:44;2.77;;;1.53;;
7324;SDS011;3703;48.016;7.802;2023-08-06T04:31:11;2.97;;;1.40;;
7324;SDS011;3703;48.016;7.802;2023-08-06T04:33:39;2.30;;;1.20;;
7324;SDS011;3703;48.016;7.802;2023-08-06T04:36:08;4.40;;;1.20;;
7324;SDS011;3703;48.016;7.802;2023-08-06T04:38:35;3.80;;;1.53;;
7324;SDS011;3703;48.016;7.802;2023-08-06T04:41:03;1.80;;;1.30;;
7324;SDS011;3703;48.016;7.802;2023-08-06T04:43:30;3.63;;;1.70;;
7324;SDS011;3703;48.016;7.802;2023-08-06T04:45:59;3.17;;;1.20;;
7324;SDS011;3703;48.016;7.802;2023-08-06T04:48:26;3.20;;;1.47;;
7324;SDS011;3703;48.016;7.802;2023-08-06T04:50:54;1.97;;;1.20;;
7324;SDS011;3703;48.016;7.802;2023-08-06T04:53:21;5.03;;;1.70;;
7324;SDS011;3703;48.016;7.802;2023-08-06T04:55:48;4.43;;;1.50;;
7324;SDS011;3703;48.016;7.802;2023-08-06T04:58:16;3.73;;;1.60;;
7324;SDS011;3703;48.016;7.802;2023-08-06T05:00:43;5.73;;;2.10;;
7324;SDS011;3703;48.016;7.802;2023-08-06T05:03:12;3.47;;;1.47;;
7324;SDS011;3703;48.016;7.802;2023-08-06T05:05:40;2.90;;;1.73;;
7324;SDS011;3703;48.016;7.802;2023-08-06T05:08:07;3.80;;;1.80;;
7324;SDS011;3703;48.016;7.802;2023-08-06T05:10:41;3.17;;;1.70;;
7324;SDS011;3703;48.016;7.802;2023-08-06T05:13:09;5.20;;;1.80;;
7324;SDS011;3703;48.016;7.802;2023-08-06T05:15:37;3.40;;;1.70;;
7324;SDS011;3703;48.016;7.802;2023-08-06T05:18:08;6.47;;;2.03;;
7324;SDS011;3703;48.016;7.802;2023-08-06T05:20:37;5.70;;;2.00;;
7324;SDS011;3703;48.016;7.802;2023-08-06T05:23:06;4.10;;;1.43;;
7324;SDS011;3703;48.016;7.802;2023-08-06T05:25:37;5.47;;;1.90;;
7324;SDS011;3703;48.016;7.802;2023-08-06T05:28:04;5.90;;;2.00;;
7324;SDS011;3703;48.016;7.802;2023-08-06T05:30:31;7.97;;;2.07;;
7324;SDS011;3703;48.016;7.802;2023-08-06T05:32:59;4.57;;;1.73;;
7324;SDS011;3703;48.016;7.802;2023-08-06T05:35:26;3.10;;;1.20;;
7324;SDS011;3703;48.016;7.802;2023-08-06T05:37:56;3.03;;;1.67;;
7324;SDS011;3703;48.016;7.802;2023-08-06T05:40:23;6.73;;;1.97;;
7324;SDS011;3703;48.016;7.802;2023-08-06T05:42:51;5.37;;;1.83;;
7324;SDS011;3703;48.016;7.802;2023-08-06T05:45:19;3.03;;;1.70;;
7324;SDS011;3703;48.016;7.802;2023-08-06T05:47:47;4.13;;;1.97;;
7324;SDS011;3703;48.016;7.802;2023-08-06T05:50:15;4.80;;;1.87;;
7324;SDS011;3703;48.016;7.802;2023-08-06T05:52:53;2.77;;;1.77;;
7324;SDS011;3703;48.016;7.802;2023-08-06T05:55:22;2.73;;;1.63;;
7324;SDS011;3703;48.016;7.802;2023-08-06T05:57:50;2.73;;;1.73;;
7324;SDS011;3703;48.016;7.802;2023-08-06T06:00:18;2.80;;;1.40;;
7324;SDS011;3703;48.016;7.802;2023-08-06T06:02:45;2.37;;;1.20;;
7324;SDS011;3703;48.016;7.802;2023-08-06T06:05:13;2.07;;;1.10;;
7324;SDS011;3703;48.016;7.802;2023-08-06T06:07:40;5.07;;;1.97;;
7324;SDS011;3703;48.016;7.802;2023-08-06T06:10:09;2.93;;;1.57;;
7324;SDS011;3703;48.016;7.802;2023-08-06T06:12:38;5.30;;;1.63;;
7324;SDS011;3703;48.016;7.802;2023-08-06T06:15:06;4.83;;;1.17;;
7324;SDS011;3703;48.016;7.802;2023-08-06T06:17:34;2.80;;;1.63;;
7324;SDS011;3703;48.016;7.802;2023-08-06T06:20:01;5.70;;;1.67;;
7324;SDS011;3703;48.016;7.802;2023-08-06T06:22:30;3.13;;;1.30;;
7324;SDS011;3703;48.016;7.802;2023-08-06T06:24:57;4.83;;;1.30;;
7324;SDS011;3703;48.016;7.802;2023-08-06T06:27:26;5.97;;;1.93;;
7324;SDS011;3703;48.016;7.802;2023-08-06T06:29:53;4.43;;;1.47;;
7324;SDS011;3703;48.016;7.802;2023-08-06T06:32:20;4.00;;;1.70;;
7324;SDS011;3703;48.016;7.802;2023-08-06T06:34:48;3.70;;;1.03;;
7324;SDS011;3703;48.016;7.802;2023-08-06T06:37:15;3.30;;;1.77;;
7324;SDS011;3703;48.016;7.802;2023-08-06T06:39:43;3.57;;;1.50;;
7324;SDS011;3703;48.016;7.802;2023-08-06T06:42:10;2.97;;;1.40;;
7324;SDS011;3703;48.016;7.802;2023-08-06T06:44:41;2.57;;;1.50;;
7324;SDS011;3703;48.016;7.802;2023-08-06T06:47:09;3.67;;;1.40;;
7324;SDS011;3703;48.016;7.802;2023-08-06T06:49:36;3.90;;;1.43;;
7324;SDS011;3703;48.016;7.802;2023-08-06T06:52:04;3.10;;;1.33;;
7324;SDS011;3703;48.016;7.802;2023-08-06T06:54:32;1.77;;;1.27;;
7324;SDS011;3703;48.016;7.802;2023-08-06T06:57:00;3.33;;;1.50;;
7324;SDS011;3703;48.016;7.802;2023-08-06T06:59:27;1.90;;;1.10;;
7324;SDS011;3703;48.016;7.802;2023-08-06T07:01:56;1.90;;;1.30;;
7324;SDS011;3703;48.016;7.802;2023-08-06T07:04:23;2.60;;;1.10;;
7324;SDS011;3703;48.016;7.802;2023-08-06T07:06:50;3.17;;;1.27;;
7324;SDS011;3703;48.016;7.802;2023-08-06T07:09:22;3.03;;;1.40;;
7324;SDS011;3703;48.016;7.802;2023-08-06T07:11:49;1.13;;;0.97;;
7324;SDS011;3703;48.016;7.802;2023-08-06T07:14:17;2.13;;;1.10;;
7324;SDS011;3703;48.016;7.802;2023-08-06T07:16:44;2.00;;;1.10;;
7324;SDS011;3703;48.016;7.802;2023-08-06T07:19:13;1.57;;;1.20;;
7324;SDS011;3703;48.016;7.802;2023-08-06T07:21:41;1.43;;;1.20;;
7324;SDS011;3703;48.016;7.802;2023-08-06T07:24:08;1.30;;;1.20;;
7324;SDS011;3703;48.016;7.802;2023-08-06T07:26:36;1.47;;;1.20;;
7324;SDS011;3703;48.016;7.802;2023-08-06T07:29:04;1.20;;;1.03;;
7324;SDS011;3703;48.016;7.802;2023-08-06T07:31:31;1.07;;;0.90;;
7324;SDS011;3703;48.016;7.802;2023-08-06T07:33:58;0.93;;;0.80;;
7324;SDS011;3703;48.016;7.802;2023-08-06T07:36:27;0.80;;;0.80;;
7324;SDS011;3703;48.016;7.802;2023-08-06T07:38:54;0.97;;;0.90;;
7324;SDS011;3703;48.016;7.802;2023-08-06T07:41:22;3.57;;;0.97;;
7324;SDS011;3703;48.016;7.802;2023-08-06T07:43:49;2.43;;;1.00;;
7324;SDS011;3703;48.016;7.802;2023-08-06T07:46:17;0.60;;;0.60;;
7324;SDS011;3703;48.016;7.802;2023-08-06T07:48:44;1.30;;;1.00;;
7324;SDS011;3703;48.016;7.802;2023-08-06T07:51:11;2.13;;;0.80;;
7324;SDS011;3703;48.016;7.802;2023-08-06T07:53:40;0.97;;;0.97;;
7324;SDS011;3703;48.016;7.802;2023-08-06T07:56:07;0.80;;;0.80;;
7324;SDS011;3703;48.016;7.802;2023-08-06T07:58:35;1.50;;;0.70;;
7324;SDS011;3703;48.016;7.802;2023-08-06T08:01:02;0.90;;;0.80;;
7324;SDS011;3703;48.016;7.802;2023-08-06T08:03:30;0.80;;;0.80;;
7324;SDS011;3703;48.016;7.802;2023-08-06T08:05:57;0.97;;;0.90;;
7324;SDS011;3703;48.016;7.802;2023-08-06T08:08:27;1.90;;;1.00;;
7324;SDS011;3703;48.016;7.802;2023-08-06T08:10:56;1.33;;;0.83;;
7324;SDS011;3703;48.016;7.802;2023-08-06T08:13:30;1.00;;;0.90;;
7324;SDS011;3703;48.016;7.802;2023-08-06T08:15:58;2.20;;;0.57;;
7324;SDS011;3703;48.016;7.802;2023-08-06T08:18:25;0.70;;;0.70;;
7324;SDS011;3703;48.016;7.802;2023-08-06T08:20:53;0.60;;;0.60;;
7324;SDS011;3703;48.016;7.802;2023-08-06T08:23:20;0.80;;;0.80;;
7324;SDS011;3703;48.016;7.802;2023-08-06T08:25:48;1.03;;;0.60;;
7324;SDS011;3703;48.016;7.802;2023-08-06T08:28:18;2.53;;;0.90;;
7324;SDS011;3703;48.016;7.802;2023-08-06T08:30:45;0.70;;;0.70;;
7324;SDS011;3703;48.016;7.802;2023-08-06T08:33:13;1.83;;;0.67;;
7324;SDS011;3703;48.016;7.802;2023-08-06T08:35:40;1.00;;;0.80;;
7324;SDS011;3703;48.016;7.802;2023-08-06T08:38:07;0.90;;;0.90;;
7324;SDS011;3703;48.016;7.802;2023-08-06T08:40:35;0.73;;;0.70;;
7324;SDS011;3703;48.016;7.802;2023-08-06T08:43:12;1.17;;;0.60;;
7324;SDS011;3703;48.016;7.802;2023-08-06T08:45:42;1.00;;;0.90;;
7324;SDS011;3703;48.016;7.802;2023-08-06T08:48:14;1.20;;;1.00;;
7324;SDS011;3703;48.016;7.802;2023-08-06T08:50:42;0.80;;;0.60;;
7324;SDS011;3703;48.016;7.802;2023-08-06T08:53:11;1.53;;;0.77;;
7324;SDS011;3703;48.016;7.802;2023-08-06T08:55:40;0.63;;;0.60;;
7324;SDS011;3703;48.016;7.802;2023-08-06T08:58:10;1.53;;;0.87;;
7324;SDS011;3703;48.016;7.802;2023-08-06T09:00:38;0.93;;;0.80;;
7324;SDS011;3703;48.016;7.802;2023-08-06T09:03:09;0.80;;;0.80;;
7324;SDS011;3703;48.016;7.802;2023-08-06T09:05:37;2.23;;;1.00;;
7324;SDS011;3703;48.016;7.802;2023-08-06T09:08:11;1.43;;;1.03;;
7324;SDS011;3703;48.016;7.802;2023-08-06T09:10:42;1.13;;;0.73;;
7324;SDS011;3703;48.016;7.802;2023-08-06T09:13:10;0.70;;;0.70;;
7324;SDS011;3703;48.016;7.802;2023-08-06T09:15:37;1.27;;;0.50;;
7324;SDS011;3703;48.016;7.802;2023-08-06T09:18:10;1.33;;;1.07;;
7324;SDS011;3703;48.016;7.802;2023-08-06T09:20:38;1.17;;;0.80;;
7324;SDS011;3703;48.016;7.802;2023-08-06T09:23:09;1.33;;;0.90;;
7324;SDS011;3703;48.016;7.802;2023-08-06T09:25:37;2.17;;;0.70;;
7324;SDS011;3703;48.016;7.802;2023-08-06T09:28:06;1.37;;;0.70;;
7324;SDS011;3703;48.016;7.802;2023-08-06T09:30:34;1.13;;;0.83;;
7324;SDS011;3703;48.016;7.802;2023-08-06T09:33:03;0.97;;;0.87;;
7324;SDS011;3703;48.016;7.802;2023-08-06T09:35:37;0.63;;;0.50;;
7324;SDS011;3703;48.016;7.802;2023-08-06T09:38:07;0.80;;;0.80;;
7324;SDS011;3703;48.016;7.802;2023-08-06T09:40:36;2.20;;;0.70;;
7324;SDS011;3703;48.016;7.802;2023-08-06T09:43:05;0.70;;;0.70;;
7324;SDS011;3703;48.016;7.802;2023-08-06T09:45:33;0.67;;;0.50;;
7324;SDS011;3703;48.016;7.802;2023-08-06T09:48:02;0.83;;;0.83;;
7324;SDS011;3703;48.016;7.802;2023-08-06T09:50:32;0.80;;;0.80;;
7324;SDS011;3703;48.016;7.802;2023-08-06T09:53:02;0.80;;;0.80;;
7324;SDS011;3703;48.016;7.802;2023-08-06T09:55:30;0.90;;;0.90;;
7324;SDS011;3703;48.016;7.802;2023-08-06T09:57:58;0.60;;;0.60;;
7324;SDS011;3703;48.016;7.802;2023-08-06T10:00:26;0.90;;;0.90;;
7324;SDS011;3703;48.016;7.802;2023-08-06T10:02:53;1.90;;;0.90;;
7324;SDS011;3703;48.016;7.802;2023-08-06T10:05:21;0.90;;;0.90;;
7324;SDS011;3703;48.016;7.802;2023-08-06T10:07:51;0.70;;;0.70;;
7324;SDS011;3703;48.016;7.802;2023-08-06T10:10:20;0.60;;;0.60;;
7324;SDS011;3703;48.016;7.802;2023-08-06T10:12:49;0.80;;;0.67;;
7324;SDS011;3703;48.016;7.802;2023-08-06T10:15:20;0.83;;;0.80;;
7324;SDS011;3703;48.016;7.802;2023-08-06T10:17:51;0.50;;;0.50;;
7324;SDS011;3703;48.016;7.802;2023-08-06T10:20:22;0.93;;;0.93;;
7324;SDS011;3703;48.016;7.802;2023-08-06T10:23:00;0.90;;;0.90;;
7324;SDS011;3703;48.016;7.802;2023-08-06T10:25:30;0.90;;;0.90;;
7324;SDS011;3703;48.016;7.802;2023-08-06T10:27:59;1.77;;;1.10;;
7324;SDS011;3703;48.016;7.802;2023-08-06T10:30:27;0.83;;;0.83;;
7324;SDS011;3703;48.016;7.802;2023-08-06T10:32:55;2.07;;;0.77;;
7324;SDS011;3703;48.016;7.802;2023-08-06T10:35:28;0.93;;;0.83;;
7324;SDS011;3703;48.016;7.802;2023-08-06T10:37:58;1.83;;;0.80;;
7324;SDS011;3703;48.016;7.802;2023-08-06T10:40:29;0.93;;;0.80;;
7324;SDS011;3703;48.016;7.802;2023-08-06T10:42:58;1.13;;;1.03;;
7324;SDS011;3703;48.016;7.802;2023-08-06T10:45:26;1.13;;;0.80;;
7324;SDS011;3703;48.016;7.802;2023-08-06T10:47:55;1.23;;;1.10;;
7324;SDS011;3703;48.016;7.802;2023-08-06T10:50:23;0.90;;;0.90;;
7324;SDS011;3703;48.016;7.802;2023-08-06T10:52:51;1.70;;;1.00;;
7324;SDS011;3703;48.016;7.802;2023-08-06T10:55:24;0.93;;;0.93;;
7324;SDS011;3703;48.016;7.802;2023-08-06T10:57:54;1.27;;;1.17;;
7324;SDS011;3703;48.016;7.802;2023-08-06T11:00:23;1.00;;;1.00;;
7324;SDS011;3703;48.016;7.802;2023-08-06T11:02:51;0.97;;;0.70;;
7324;SDS011;3703;48.016;7.802;2023-08-06T11:05:19;1.00;;;1.00;;
7324;SDS011;3703;48.016;7.802;2023-08-06T11:07:52;1.57;;;0.90;;
7324;SDS011;3703;48.016;7.802;2023-08-06T11:10:19;0.90;;;0.90;;
7324;SDS011;3703;48.016;7.802;2023-08-06T11:12:47;1.13;;;1.03;;
7324;SDS011;3703;48.016;7.802;2023-08-06T11:15:15;1.00;;;0.90;;
7324;SDS011;3703;48.016;7.802;2023-08-06T11:17:42;3.50;;;0.90;;
7324;SDS011;3703;48.016;7.802;2023-08-06T11:20:09;1.67;;;0.70;;
7324;SDS011;3703;48.016;7.802;2023-08-06T11:22:37;1.23;;;0.70;;
7324;SDS011;3703;48.016;7.802;2023-08-06T11:25:05;1.03;;;0.90;;
7324;SDS011;3703;48.016;7.802;2023-08-06T11:27:33;1.33;;;0.77;;
7324;SDS011;3703;48.016;7.802;2023-08-06T11:30:02;1.00;;;0.97;;
7324;SDS011;3703;48.016;7.802;2023-08-06T11:32:30;0.80;;;0.70;;
7324;SDS011;3703;48.016;7.802;2023-08-06T11:34:58;0.60;;;0.60;;
7324;SDS011;3703;48.016;7.802;2023-08-06T11:37:25;2.10;;;0.83;;
7324;SDS011;3703;48.016;7.802;2023-08-06T11:39:53;1.20;;;1.10;;
7324;SDS011;3703;48.016;7.802;2023-08-06T11:42:21;1.40;;;0.60;;
7324;SDS011;3703;48.016;7.802;2023-08-06T11:44:50;1.03;;;0.80;;
7324;SDS011;3703;48.016;7.802;2023-08-06T11:47:18;3.33;;;1.03;;
7324;SDS011;3703;48.016;7.802;2023-08-06T11:49:46;1.13;;;0.90;;
7324;SDS011;3703;48.016;7.802;2023-08-06T11:52:15;1.27;;;0.90;;
7324;SDS011;3703;48.016;7.802;2023-08-06T11:54:45;1.97;;;1.00;;
7324;SDS011;3703;48.016;7.802;2023-08-06T11:57:14;0.60;;;0.60;;
7324;SDS011;3703;48.016;7.802;2023-08-06T11:59:43;0.50;;;0.50;;
7324;SDS011;3703;48.016;7.802;2023-08-06T12:02:11;0.50;;;0.50;;
7324;SDS011;3703;48.016;7.802;2023-08-06T12:07:31;0.70;;;0.63;;
7324;SDS011;3703;48.016;7.802;2023-08-06T12:09:59;1.03;;;0.80;;
7324;SDS011;3703;48.016;7.802;2023-08-06T12:12:27;0.63;;;0.63;;
7324;SDS011;3703;48.016;7.802;2023-08-06T12:14:55;1.47;;;0.50;;
7324;SDS011;3703;48.016;7.802;2023-08-06T12:17:22;1.97;;;0.80;;
7324;SDS011;3703;48.016;7.802;2023-08-06T12:19:50;2.73;;;0.90;;
7324;SDS011;3703;48.016;7.802;2023-08-06T12:22:20;1.90;;;0.90;;
7324;SDS011;3703;48.016;7.802;2023-08-06T12:24:47;0.80;;;0.80;;
7324;SDS011;3703;48.016;7.802;2023-08-06T12:27:15;2.70;;;0.60;;
7324;SDS011;3703;48.016;7.802;2023-08-06T12:29:43;0.67;;;0.50;;
7324;SDS011;3703;48.016;7.802;2023-08-06T12:32:13;0.60;;;0.60;;
7324;SDS011;3703;48.016;7.802;2023-08-06T12:34:41;4.47;;;0.77;;
7324;SDS011;3703;48.016;7.802;2023-08-06T12:37:08;0.70;;;0.70;;
7324;SDS011;3703;48.016;7.802;2023-08-06T12:39:37;1.67;;;0.80;;
7324;SDS011;3703;48.016;7.802;2023-08-06T12:42:05;0.53;;;0.53;;
7324;SDS011;3703;48.016;7.802;2023-08-06T12:44:32;0.93;;;0.70;;
7324;SDS011;3703;48.016;7.802;2023-08-06T12:47:14;2.47;;;0.80;;
7324;SDS011;3703;48.016;7.802;2023-08-06T12:49:42;1.00;;;0.90;;
7324;SDS011;3703;48.016;7.802;2023-08-06T12:52:11;1.70;;;0.80;;
7324;SDS011;3703;48.016;7.802;2023-08-06T12:54:41;0.77;;;0.77;;
7324;SDS011;3703;48.016;7.802;2023-08-06T12:57:10;0.90;;;0.90;;
7324;SDS011;3703;48.016;7.802;2023-08-06T12:59:38;0.80;;;0.80;;
7324;SDS011;3703;48.016;7.802;2023-08-06T13:02:05;0.70;;;0.70;;
7324;SDS011;3703;48.016;7.802;2023-08-06T13:04:32;0.80;;;0.80;;
7324;SDS011;3703;48.016;7.802;2023-08-06T13:07:00;0.97;;;0.87;;
7324;SDS011;3703;48.016;7.802;2023-08-06T13:09:27;2.20;;;0.83;;
7324;SDS011;3703;48.016;7.802;2023-08-06T13:11:57;0.70;;;0.70;;
7324;SDS011;3703;48.016;7.802;2023-08-06T13:14:25;1.63;;;0.70;;
7324;SDS011;3703;48.016;7.802;2023-08-06T13:16:53;1.10;;;0.80;;
7324;SDS011;3703;48.016;7.802;2023-08-06T13:19:20;2.20;;;0.90;;
7324;SDS011;3703;48.016;7.802;2023-08-06T13:24:35;0.90;;;0.90;;
7324;SDS011;3703;48.016;7.802;2023-08-06T13:27:04;0.93;;;0.90;;
7324;SDS011;3703;48.016;7.802;2023-08-06T13:29:32;1.00;;;0.90;;
7324;SDS011;3703;48.016;7.802;2023-08-06T13:31:59;0.80;;;0.80;;
7324;SDS011;3703;48.016;7.802;2023-08-06T13:34:26;0.87;;;0.87;;
7324;SDS011;3703;48.016;7.802;2023-08-06T13:36:57;1.43;;;0.90;;
7324;SDS011;3703;48.016;7.802;2023-08-06T13:39:24;2.00;;;0.90;;
7324;SDS011;3703;48.016;7.802;2023-08-06T13:41:52;2.57;;;0.90;;
7324;SDS011;3703;48.016;7.802;2023-08-06T13:44:21;3.03;;;1.30;;
7324;SDS011;3703;48.016;7.802;2023-08-06T13:46:51;1.13;;;1.03;;
7324;SDS011;3703;48.016;7.802;2023-08-06T13:49:18;1.50;;;1.00;;
7324;SDS011;3703;48.016;7.802;2023-08-06T13:51:46;1.33;;;0.90;;
7324;SDS011;3703;48.016;7.802;2023-08-06T13:54:13;1.63;;;0.90;;
7324;SDS011;3703;48.016;7.802;2023-08-06T13:56:41;0.83;;;0.83;;
7324;SDS011;3703;48.016;7.802;2023-08-06T13:59:08;2.07;;;1.00;;
7324;SDS011;3703;48.016;7.802;2023-08-06T14:01:39;0.90;;;0.90;;
7324;SDS011;3703;48.016;7.802;2023-08-06T14:04:07;1.77;;;1.00;;
7324;SDS011;3703;48.016;7.802;2023-08-06T14:06:35;1.93;;;0.93;;
7324;SDS011;3703;48.016;7.802;2023-08-06T14:09:02;1.07;;;0.97;;
7324;SDS011;3703;48.016;7.802;2023-08-06T14:11:29;0.80;;;0.80;;
7324;SDS011;3703;48.016;7.802;2023-08-06T14:13:57;2.30;;;1.03;;
7324;SDS011;3703;48.016;7.802;2023-08-06T14:16:25;3.47;;;0.93;;
7324;SDS011;3703;48.016;7.802;2023-08-06T14:18:53;1.07;;;0.97;;
7324;SDS011;3703;48.016;7.802;2023-08-06T14:21:21;2.40;;;1.20;;
7324;SDS011;3703;48.016;7.802;2023-08-06T14:23:48;1.47;;;1.00;;
7324;SDS011;3703;48.016;7.802;2023-08-06T14:26:15;2.30;;;1.13;;
7324;SDS011;3703;48.016;7.802;2023-08-06T14:28:42;1.20;;;1.10;;
7324;SDS011;3703;48.016;7.802;2023-08-06T14:31:09;1.87;;;1.30;;
7324;SDS011;3703;48.016;7.802;2023-08-06T14:33:37;0.97;;;0.93;;
7324;SDS011;3703;48.016;7.802;2023-08-06T14:36:06;1.73;;;1.20;;
7324;SDS011;3703;48.016;7.802;2023-08-06T14:38:34;2.57;;;1.10;;
7324;SDS011;3703;48.016;7.802;2023-08-06T14:41:01;1.20;;;1.10;;
7324;SDS011;3703;48.016;7.802;2023-08-06T14:43:28;2.23;;;1.23;;
7324;SDS011;3703;48.016;7.802;2023-08-06T14:45:55;1.20;;;1.10;;
7324;SDS011;3703;48.016;7.802;2023-08-06T14:48:23;1.07;;;1.00;;
7324;SDS011;3703;48.016;7.802;2023-08-06T14:50:51;1.20;;;1.10;;
7324;SDS011;3703;48.016;7.802;2023-08-06T14:53:21;2.10;;;0.90;;
7324;SDS011;3703;48.016;7.802;2023-08-06T14:55:48;1.13;;;1.03;;
7324;SDS011;3703;48.016;7.802;2023-08-06T14:58:16;1.10;;;0.90;;
7324;SDS011;3703;48.016;7.802;2023-08-06T15:00:44;2.30;;;1.20;;
7324;SDS011;3703;48.016;7.802;2023-08-06T15:03:11;4.80;;;1.27;;
7324;SDS011;3703;48.016;7.802;2023-08-06T15:05:38;0.80;;;0.80;;
7324;SDS011;3703;48.016;7.802;2023-08-06T15:08:09;1.60;;;1.00;;
7324;SDS011;3703;48.016;7.802;2023-08-06T15:10:38;1.00;;;1.00;;
7324;SDS011;3703;48.016;7.802;2023-08-06T15:13:05;1.73;;;0.97;;
7324;SDS011;3703;48.016;7.802;2023-08-06T15:15:32;1.23;;;0.90;;
7324;SDS011;3703;48.016;7.802;2023-08-06T15:17:59;1.27;;;1.17;;
7324;SDS011;3703;48.016;7.802;2023-08-06T15:20:26;1.47;;;1.30;;
7324;SDS011;3703;48.016;7.802;2023-08-06T15:22:54;1.27;;;1.17;;
7324;SDS011;3703;48.016;7.802;2023-08-06T15:25:23;3.27;;;1.40;;
7324;SDS011;3703;48.016;7.802;2023-08-06T15:27:51;1.90;;;1.20;;